Time;durP1;ratioP1;P1;durP2;ratioP2;P2;SDS_P1;SDS_P2;PMS_P1;PMS_P2;Temp;Humidity;BMP_temperature;BMP_pressure;BME280_temperature;BME280_humidity;BME280_pressure;Samples;Min_cycle;Max_cycle;Signal;HPM_P1;HPM_P2
2023/05/09 00:02:45;;;;;;;;;;;;;;;13.98;61.20;98365.91;5104070;28;19948;-64
2023/05/09 00:05:33;;;;;;;;;;;;;;;14.02;60.99;98356.75;5100385;28;19924;-63
2023/05/09 00:08:23;;;;;;;;;;;;;;;13.98;60.96;98355.78;5109363;27;19932;-63
2023/05/09 00:11:11;;;;;;;;;;;;;;;13.97;60.76;98359.63;5105906;28;19934;-67
2023/05/09 00:13:59;;;;;;;;;;;;;;;13.99;60.31;98362.03;5105283;28;20547;-68
2023/05/09 00:16:48;;;;;;;;;;;;;;;13.95;60.80;98361.06;5108001;27;19924;-63
2023/05/09 00:19:37;;;;;;;;;;;;;;;13.98;60.85;98365.91;5096967;28;19924;-64
2023/05/09 00:22:26;;;;;;;;;;;;;;;13.92;61.20;98365.25;5104033;28;20532;-64
2023/05/09 00:25:15;;;;;;;;;;;;;;;13.91;60.92;98363.66;5094229;28;19976;-64
2023/05/09 00:28:04;;;;;;;;;;;;;;;13.87;61.28;98359.97;5092219;28;20033;-64
2023/05/09 00:30:52;;;;;;;;;;;;;;;13.86;60.89;98361.09;5094160;28;19968;-64
2023/05/09 00:33:40;;;;;;;;;;;;;;;13.86;60.62;98350.97;5098817;28;19919;-64
2023/05/09 00:36:29;;;;;;;;;;;;;;;13.91;61.04;98358.19;5110019;27;19926;-64
2023/05/09 00:39:17;;;;;;;;;;;;;;;13.91;61.39;98350.00;5089808;28;19919;-63
2023/05/09 00:42:07;;;;;;;;;;;;;;;13.87;61.23;98349.84;5095974;28;19920;-64
2023/05/09 00:44:57;;;;;;;;;;;;;;;13.86;61.41;98342.78;5106855;28;20572;-65
2023/05/09 00:47:45;;;;;;;;;;;;;;;13.85;61.81;98340.38;5099672;27;19924;-64
2023/05/09 00:50:34;;;;;;;;;;;;;;;13.86;61.83;98336.50;5118856;27;19924;-64
2023/05/09 00:53:22;;;;;;;;;;;;;;;13.85;61.63;98332.19;5097610;28;19924;-65
2023/05/09 00:56:10;;;;;;;;;;;;;;;13.82;61.73;98325.41;5101848;28;19928;-64
2023/05/09 00:59:00;;;;;;;;;;;;;;;13.77;61.62;98328.31;5103446;28;19919;-65
2023/05/09 01:01:51;;;;;;;;;;;;;;;13.75;62.02;98322.38;5097928;28;19920;-65
2023/05/09 01:04:39;;;;;;;;;;;;;;;13.72;61.55;98319.47;5111316;27;19924;-63
2023/05/09 01:07:29;;;;;;;;;;;;;;;13.70;61.36;98316.28;5095539;28;20361;-64
2023/05/09 01:10:23;;;;;;;;;;;;;;;13.70;61.89;98317.09;5112860;27;19920;-64
2023/05/09 01:13:15;;;;;;;;;;;;;;;13.69;61.43;98317.38;5088821;28;20392;-64
2023/05/09 01:16:07;;;;;;;;;;;;;;;13.69;61.47;98310.03;5091575;28;19931;-64
2023/05/09 01:18:56;;;;;;;;;;;;;;;13.69;60.89;98301.00;5087508;28;20018;-64
2023/05/09 01:21:44;;;;;;;;;;;;;;;13.66;61.53;98304.38;5056894;28;20605;-63
2023/05/09 01:24:47;;;;;;;;;;;;;;;13.63;61.18;98303.09;5058988;28;20003;-65
2023/05/09 01:27:43;;;;;;;;;;;;;;;13.59;61.48;98307.59;5078204;28;20012;-65
2023/05/09 01:30:33;;;;;;;;;;;;;;;13.62;61.70;98310.47;5068278;28;19931;-67
2023/05/09 01:33:21;;;;;;;;;;;;;;;13.62;61.31;98307.75;5070632;28;19927;-65
2023/05/09 01:36:12;;;;;;;;;;;;;;;13.58;61.05;98306.81;5085104;27;19924;-64
2023/05/09 01:39:00;;;;;;;;;;;;;;;13.53;61.15;98303.41;5075017;28;19927;-65
2023/05/09 01:41:49;;;;;;;;;;;;;;;13.53;61.58;98304.22;5079283;28;19963;-63
2023/05/09 01:44:38;;;;;;;;;;;;;;;13.51;61.51;98297.47;5056888;28;20362;-64
2023/05/09 01:47:27;;;;;;;;;;;;;;;13.52;61.46;98294.41;5044733;28;19921;-64
2023/05/09 01:50:15;;;;;;;;;;;;;;;13.52;61.64;98294.41;5059591;28;19932;-65
2023/05/09 01:53:04;;;;;;;;;;;;;;;13.52;61.78;98291.69;5062309;28;19925;-65
2023/05/09 01:55:53;;;;;;;;;;;;;;;13.50;61.45;98288.50;5062051;28;19930;-66
2023/05/09 01:58:41;;;;;;;;;;;;;;;13.44;61.90;98295.22;5047564;28;19920;-64
2023/05/09 02:01:31;;;;;;;;;;;;;;;13.43;62.08;98290.91;5064552;28;20305;-64
2023/05/09 02:04:22;;;;;;;;;;;;;;;13.42;62.03;98286.53;5054733;28;19927;-65
2023/05/09 02:07:11;;;;;;;;;;;;;;;13.38;62.14;98282.88;5058893;28;20057;-65
2023/05/09 02:10:00;;;;;;;;;;;;;;;13.41;62.06;98276.75;5053753;28;19947;-62
2023/05/09 02:12:48;;;;;;;;;;;;;;;13.44;61.71;98281.59;5063735;28;19921;-65
2023/05/09 02:15:39;;;;;;;;;;;;;;;13.40;61.52;98285.28;5071440;28;20009;-65
2023/05/09 02:18:28;;;;;;;;;;;;;;;13.38;61.56;98285.59;5072802;28;19920;-64
2023/05/09 02:21:17;;;;;;;;;;;;;;;13.35;61.21;98286.22;5064105;28;19927;-64
2023/05/09 02:24:06;;;;;;;;;;;;;;;13.36;61.55;98280.44;5063313;28;19978;-63
2023/05/09 02:26:55;;;;;;;;;;;;;;;13.36;61.15;98285.09;5064356;28;20716;-64
2023/05/09 02:29:43;;;;;;;;;;;;;;;13.35;61.27;98283.50;5061814;28;20643;-64
2023/05/09 02:32:31;;;;;;;;;;;;;;;13.34;61.13;98277.25;5077356;28;20285;-64
2023/05/09 02:35:20;;;;;;;;;;;;;;;13.34;60.70;98285.44;5039471;28;19925;-64
2023/05/09 02:38:09;;;;;;;;;;;;;;;13.45;59.99;98288.66;5047049;28;20381;-63
2023/05/09 02:41:00;;;;;;;;;;;;;;;13.42;60.25;98288.47;5078107;28;19974;-64
2023/05/09 02:43:48;;;;;;;;;;;;;;;13.32;60.29;98289.63;5051563;28;19985;-64
2023/05/09 02:46:37;;;;;;;;;;;;;;;13.31;60.71;98280.59;5047653;28;19932;-64
2023/05/09 02:49:25;;;;;;;;;;;;;;;13.29;61.03;98284.78;5068058;28;19959;-63
2023/05/09 02:52:20;;;;;;;;;;;;;;;13.23;61.05;98281.41;5046432;28;19958;-64
2023/05/09 02:55:10;;;;;;;;;;;;;;;13.24;60.95;98279.47;5072631;28;19947;-65
2023/05/09 02:58:00;;;;;;;;;;;;;;;13.32;60.71;98274.03;5048820;28;20292;-64
2023/05/09 03:01:02;;;;;;;;;;;;;;;13.29;60.73;98273.88;5072641;28;19959;-63
2023/05/09 03:03:51;;;;;;;;;;;;;;;13.30;60.83;98270.00;5061278;28;19935;-66
2023/05/09 03:06:40;;;;;;;;;;;;;;;13.22;61.02;98268.91;5048767;28;19983;-67
2023/05/09 03:09:29;;;;;;;;;;;;;;;13.14;61.04;98268.84;5047030;28;19927;-65
2023/05/09 03:12:18;;;;;;;;;;;;;;;13.12;61.23;98274.63;5046625;28;20277;-63
2023/05/09 03:15:12;;;;;;;;;;;;;;;13.04;61.46;98267.22;5075141;28;20397;-64
2023/05/09 03:18:02;;;;;;;;;;;;;;;13.01;61.53;98267.88;5063818;28;20027;-64
2023/05/09 03:20:52;;;;;;;;;;;;;;;13.02;61.32;98269.47;5079469;28;19955;-65
2023/05/09 03:23:40;;;;;;;;;;;;;;;13.00;61.30;98267.06;5043201;28;19939;-65
2023/05/09 03:26:29;;;;;;;;;;;;;;;12.98;61.19;98271.22;5062600;28;19939;-65
2023/05/09 03:29:18;;;;;;;;;;;;;;;12.97;61.67;98261.44;5051088;28;19935;-64
2023/05/09 03:32:07;;;;;;;;;;;;;;;12.93;61.33;98269.44;5066967;28;20425;-65
2023/05/09 03:34:56;;;;;;;;;;;;;;;12.89;61.64;98265.78;5078489;28;19924;-64
2023/05/09 03:37:45;;;;;;;;;;;;;;;12.87;62.05;98257.09;5052326;28;19929;-63
2023/05/09 03:40:33;;;;;;;;;;;;;;;12.88;61.84;98260.63;5052238;28;19928;-63
2023/05/09 03:43:27;;;;;;;;;;;;;;;12.82;61.52;98257.22;5050089;28;20022;-63
2023/05/09 03:46:18;;;;;;;;;;;;;;;12.79;61.58;98264.13;5051236;28;20387;-64
2023/05/09 03:49:08;;;;;;;;;;;;;;;12.83;61.53;98261.56;5048694;28;19971;-64
2023/05/09 03:51:57;;;;;;;;;;;;;;;12.85;61.54;98259.34;5078447;28;19950;-63
2023/05/09 03:54:46;;;;;;;;;;;;;;;12.88;61.23;98264.13;5064366;28;19935;-65
2023/05/09 03:57:36;;;;;;;;;;;;;;;12.89;61.65;98259.50;5045789;28;20007;-64
2023/05/09 04:00:27;;;;;;;;;;;;;;;12.88;61.58;98247.78;5049559;28;20444;-65
2023/05/09 04:03:26;;;;;;;;;;;;;;;12.92;61.23;98270.56;5050317;28;20538;-63
2023/05/09 04:06:15;;;;;;;;;;;;;;;12.95;61.54;98267.22;5077265;28;19959;-65
2023/05/09 04:09:04;;;;;;;;;;;;;;;13.03;61.58;98266.41;5050129;28;19942;-63
2023/05/09 04:11:53;;;;;;;;;;;;;;;13.01;61.73;98276.84;5059161;28;19932;-62
2023/05/09 04:14:42;;;;;;;;;;;;;;;13.02;61.53;98264.81;5067953;28;20362;-65
2023/05/09 04:17:30;;;;;;;;;;;;;;;13.01;61.71;98270.59;5051732;28;20279;-64
2023/05/09 04:20:20;;;;;;;;;;;;;;;12.99;61.27;98270.91;5042119;28;19955;-64
2023/05/09 04:23:08;;;;;;;;;;;;;;;13.02;61.62;98269.47;5048519;28;19966;-64
2023/05/09 04:25:57;;;;;;;;;;;;;;;13.04;62.10;98273.47;5065597;28;19947;-63
2023/05/09 04:28:46;;;;;;;;;;;;;;;13.00;62.10;98271.72;5075765;28;19928;-64
2023/05/09 04:31:36;;;;;;;;;;;;;;;12.98;62.12;98263.03;5066870;28;19932;-64
2023/05/09 04:34:26;;;;;;;;;;;;;;;12.98;62.13;98266.56;5078269;28;20428;-64
2023/05/09 04:37:17;;;;;;;;;;;;;;;13.10;61.74;98261.31;5066192;28;19925;-63
2023/05/09 04:40:08;;;;;;;;;;;;;;;13.05;61.82;98255.22;5075868;28;19957;-64
2023/05/09 04:43:04;;;;;;;;;;;;;;;13.13;61.97;98261.78;5049386;28;20673;-65
2023/05/09 04:45:53;;;;;;;;;;;;;;;13.14;61.62;98260.66;5066209;28;19920;-65
2023/05/09 04:48:41;;;;;;;;;;;;;;;13.18;61.60;98258.91;5051112;28;19935;-65
2023/05/09 04:51:30;;;;;;;;;;;;;;;13.23;60.98;98264.25;5051153;28;19938;-64
2023/05/09 04:54:20;;;;;;;;;;;;;;;13.28;61.31;98273.06;5066522;28;19954;-64
2023/05/09 04:57:12;;;;;;;;;;;;;;;13.36;60.99;98274.19;5049704;28;20040;-63
2023/05/09 05:00:10;;;;;;;;;;;;;;;13.41;60.71;98260.38;5071639;28;19988;-64
2023/05/09 05:03:00;;;;;;;;;;;;;;;13.45;60.37;98261.34;5051338;28;19989;-63
2023/05/09 05:05:50;;;;;;;;;;;;;;;13.59;59.09;98272.13;5049440;28;19920;-64
2023/05/09 05:08:39;;;;;;;;;;;;;;;13.59;59.11;98269.38;5073575;28;19924;-64
2023/05/09 05:11:28;;;;;;;;;;;;;;;13.71;58.64;98275.00;5053942;28;19925;-65
2023/05/09 05:14:17;;;;;;;;;;;;;;;13.80;58.68;98270.34;5043822;28;20049;-63
2023/05/09 05:17:06;;;;;;;;;;;;;;;13.89;58.38;98270.31;5043923;28;20580;-65
2023/05/09 05:19:55;;;;;;;;;;;;;;;14.00;58.02;98260.63;5074636;28;19928;-64
2023/05/09 05:22:43;;;;;;;;;;;;;;;14.08;57.84;98268.03;5077793;28;19985;-63
2023/05/09 05:25:32;;;;;;;;;;;;;;;14.19;57.13;98268.47;5051345;28;19925;-64
2023/05/09 05:28:22;;;;;;;;;;;;;;;14.35;56.96;98266.00;5065282;28;20109;-64
2023/05/09 05:31:11;;;;;;;;;;;;;;;14.39;55.93;98269.69;5048662;28;20013;-65
2023/05/09 05:33:59;;;;;;;;;;;;;;;14.47;55.34;98263.41;5058815;28;19959;-63
2023/05/09 05:36:47;;;;;;;;;;;;;;;14.51;54.59;98264.38;5044667;28;20098;-64
2023/05/09 05:39:35;;;;;;;;;;;;;;;14.70;53.76;98261.25;5063669;28;19971;-65
2023/05/09 05:42:24;;;;;;;;;;;;;;;14.63;53.70;98261.72;5051396;28;19921;-66
2023/05/09 05:45:15;;;;;;;;;;;;;;;14.83;51.72;98259.38;5050515;28;20275;-64
2023/05/09 05:48:08;;;;;;;;;;;;;;;14.87;50.99;98254.88;5053428;28;19950;-65
2023/05/09 05:50:57;;;;;;;;;;;;;;;14.84;51.48;98250.84;5045143;28;20037;-65
2023/05/09 05:53:49;;;;;;;;;;;;;;;14.82;51.76;98244.13;5058744;28;19921;-65
2023/05/09 05:56:38;;;;;;;;;;;;;;;14.78;52.32;98243.16;5064196;28;19947;-64
2023/05/09 05:59:27;;;;;;;;;;;;;;;14.85;52.23;98246.97;5077714;28;19924;-65
2023/05/09 06:02:18;;;;;;;;;;;;;;;14.85;51.03;98240.69;5077708;28;19927;-66
2023/05/09 06:05:08;;;;;;;;;;;;;;;14.89;51.25;98241.66;5062431;28;19975;-63
2023/05/09 06:07:56;;;;;;;;;;;;;;;14.85;51.45;98235.22;5053073;28;20537;-64
2023/05/09 06:10:45;;;;;;;;;;;;;;;14.82;50.73;98241.38;5051278;28;20409;-66
2023/05/09 06:13:33;;;;;;;;;;;;;;;14.91;50.74;98236.63;5052803;28;20011;-65
2023/05/09 06:16:24;;;;;;;;;;;;;;;14.99;50.38;98229.53;5069619;28;19925;-65
2023/05/09 06:19:15;;;;;;;;;;;;;;;14.98;50.99;98222.44;5046045;28;19928;-65
2023/05/09 06:22:03;;;;;;;;;;;;;;;15.06;50.58;98229.78;5050980;28;19928;-68
2023/05/09 06:24:51;;;;;;;;;;;;;;;15.32;49.99;98227.66;5049464;28;20360;-66
2023/05/09 06:27:40;;;;;;;;;;;;;;;15.38;49.32;98225.50;5074089;28;19932;-65
2023/05/09 06:30:29;;;;;;;;;;;;;;;15.46;48.47;98230.13;5067370;28;20318;-65
2023/05/09 06:33:18;;;;;;;;;;;;;;;15.39;49.24;98229.84;5064524;28;19930;-66
2023/05/09 06:36:08;;;;;;;;;;;;;;;15.35;48.32;98215.25;5055206;28;20015;-61
2023/05/09 06:38:56;;;;;;;;;;;;;;;15.31;49.10;98217.03;5063643;28;20014;-65
2023/05/09 06:41:46;;;;;;;;;;;;;;;15.51;48.08;98213.50;5059876;28;19974;-65
2023/05/09 06:44:43;;;;;;;;;;;;;;;15.60;47.51;98216.13;5072425;28;19986;-66
2023/05/09 06:47:32;;;;;;;;;;;;;;;15.80;47.04;98211.78;5064127;28;20246;-66
2023/05/09 06:50:23;;;;;;;;;;;;;;;15.74;46.85;98204.94;5062151;28;19972;-65
2023/05/09 06:53:12;;;;;;;;;;;;;;;15.51;46.97;98197.06;5075861;28;20093;-64
2023/05/09 06:56:00;;;;;;;;;;;;;;;15.36;46.65;98190.25;5054348;28;19924;-65
2023/05/09 06:58:49;;;;;;;;;;;;;;;15.59;46.51;98182.47;5068136;28;19924;-66
2023/05/09 07:01:37;;;;;;;;;;;;;;;15.71;46.78;98182.56;5067841;28;19921;-67
2023/05/09 07:04:25;;;;;;;;;;;;;;;15.96;46.49;98179.84;5075481;28;20427;-65
2023/05/09 07:07:13;;;;;;;;;;;;;;;16.02;45.78;98167.53;5049090;28;20015;-65
2023/05/09 07:10:04;;;;;;;;;;;;;;;16.15;44.39;98165.63;5046397;28;19921;-66
2023/05/09 07:12:58;;;;;;;;;;;;;;;16.27;44.24;98167.56;5063260;28;19937;-65
2023/05/09 07:15:46;;;;;;;;;;;;;;;16.38;44.42;98165.97;5059944;28;20013;-66
2023/05/09 07:18:35;;;;;;;;;;;;;;;16.36;44.43;98165.53;5057121;28;19924;-66
2023/05/09 07:21:23;;;;;;;;;;;;;;;16.44;44.30;98162.63;5115445;27;20409;-66
2023/05/09 07:24:11;;;;;;;;;;;;;;;16.50;43.97;98153.03;5103097;28;20007;-67
2023/05/09 07:27:03;;;;;;;;;;;;;;;16.65;43.43;98148.78;5114740;28;20010;-64
2023/05/09 07:29:51;;;;;;;;;;;;;;;16.75;43.09;98147.56;5079143;28;20081;-66
2023/05/09 07:32:40;;;;;;;;;;;;;;;16.89;43.44;98145.25;5104526;28;20674;-63
2023/05/09 07:35:28;;;;;;;;;;;;;;;16.95;43.34;98145.81;5091347;28;20415;-66
2023/05/09 07:38:16;;;;;;;;;;;;;;;17.01;43.00;98149.91;5092582;28;19941;-66
2023/05/09 07:41:05;;;;;;;;;;;;;;;17.09;42.73;98142.66;5095842;28;19938;-66
2023/05/09 07:43:54;;;;;;;;;;;;;;;17.19;40.33;98140.22;5100205;28;19924;-65
2023/05/09 07:46:42;;;;;;;;;;;;;;;17.22;40.97;98136.78;5104003;28;20426;-66
2023/05/09 07:49:30;;;;;;;;;;;;;;;17.41;41.80;98138.06;5100845;28;20375;-66
2023/05/09 07:52:19;;;;;;;;;;;;;;;17.45;40.16;98137.03;5102572;28;20303;-65
2023/05/09 07:55:07;;;;;;;;;;;;;;;17.48;40.36;98125.34;5103622;28;19930;-64
2023/05/09 07:57:56;;;;;;;;;;;;;;;17.60;39.91;98124.47;5103845;28;19927;-65
2023/05/09 08:00:45;;;;;;;;;;;;;;;17.73;40.19;98125.22;5104113;28;19919;-65
2023/05/09 08:03:33;;;;;;;;;;;;;;;17.76;39.48;98117.06;5103965;28;19920;-65
2023/05/09 08:06:23;;;;;;;;;;;;;;;17.63;40.34;98122.97;5091687;28;20572;-65
2023/05/09 08:09:11;;;;;;;;;;;;;;;17.67;39.86;98108.16;5096875;28;19927;-65
2023/05/09 08:12:00;;;;;;;;;;;;;;;17.88;39.96;98101.66;5099482;28;19924;-63
2023/05/09 08:14:48;;;;;;;;;;;;;;;17.92;39.61;98088.81;5104399;28;20223;-64
2023/05/09 08:17:37;;;;;;;;;;;;;;;18.06;39.31;98102.91;5107967;28;20029;-61
2023/05/09 08:20:25;;;;;;;;;;;;;;;18.13;38.79;98094.81;5099562;28;19978;-64
2023/05/09 08:23:14;;;;;;;;;;;;;;;18.15;39.23;98092.50;5101677;27;19924;-64
2023/05/09 08:26:02;;;;;;;;;;;;;;;18.15;38.92;98086.22;5101915;27;20041;-64
2023/05/09 08:28:50;;;;;;;;;;;;;;;18.26;39.05;98090.78;5096654;28;19950;-64
2023/05/09 08:31:40;;;;;;;;;;;;;;;18.44;38.90;98082.19;5089236;28;20030;-62
2023/05/09 08:34:33;;;;;;;;;;;;;;;18.47;38.25;98079.47;5088025;28;20209;-64
2023/05/09 08:37:21;;;;;;;;;;;;;;;18.58;37.74;98080.50;5101994;28;19938;-63
2023/05/09 08:40:10;;;;;;;;;;;;;;;18.67;37.05;98071.28;5094592;28;19954;-61
2023/05/09 08:42:59;;;;;;;;;;;;;;;18.77;36.41;98059.72;5100290;28;19966;-64
2023/05/09 08:45:47;;;;;;;;;;;;;;;18.75;36.26;98051.84;5106809;28;19920;-64
2023/05/09 08:48:37;;;;;;;;;;;;;;;18.60;36.17;98049.91;5102077;28;20007;-65
2023/05/09 08:51:26;;;;;;;;;;;;;;;18.55;36.31;98044.69;5090809;28;20285;-64
2023/05/09 08:54:15;;;;;;;;;;;;;;;18.75;36.63;98051.84;5096076;28;20048;-64
2023/05/09 08:57:03;;;;;;;;;;;;;;;18.92;36.36;98039.59;5105388;28;20461;-65
2023/05/09 08:59:51;;;;;;;;;;;;;;;19.06;35.77;98033.56;5090790;28;19944;-64
2023/05/09 09:02:40;;;;;;;;;;;;;;;19.24;35.16;98031.94;5082121;28;19991;-66
2023/05/09 09:05:28;;;;;;;;;;;;;;;19.23;35.14;98035.88;5104200;28;19935;-64
2023/05/09 09:08:22;;;;;;;;;;;;;;;19.29;33.79;98028.09;5090234;28;19968;-63
2023/05/09 09:11:11;;;;;;;;;;;;;;;19.31;34.46;98028.50;5099364;28;20325;-66
2023/05/09 09:14:00;;;;;;;;;;;;;;;19.21;34.52;98026.34;5104822;28;20840;-66
2023/05/09 09:16:48;;;;;;;;;;;;;;;19.24;34.49;98034.69;5106921;28;20475;-66
2023/05/09 09:19:37;;;;;;;;;;;;;;;19.42;33.42;98023.19;5103894;28;19927;-65
2023/05/09 09:22:32;;;;;;;;;;;;;;;19.48;33.14;98025.28;5105652;28;19949;-65
2023/05/09 09:25:22;;;;;;;;;;;;;;;19.28;33.50;98010.78;5105737;28;19949;-65
2023/05/09 09:28:10;;;;;;;;;;;;;;;19.36;32.64;98009.72;5104335;28;20318;-64
2023/05/09 09:31:00;;;;;;;;;;;;;;;19.46;32.10;98007.53;5106415;28;20292;-64
2023/05/09 09:33:49;;;;;;;;;;;;;;;19.61;32.96;97998.38;5106880;28;20105;-64
2023/05/09 09:36:37;;;;;;;;;;;;;;;19.65;31.13;98001.97;5090216;28;19943;-64
2023/05/09 09:39:25;;;;;;;;;;;;;;;19.51;30.98;97998.97;5103658;28;19960;-63
2023/05/09 09:42:15;;;;;;;;;;;;;;;19.62;31.72;97988.94;5104340;28;19934;-65
2023/05/09 09:45:04;;;;;;;;;;;;;;;19.78;31.62;97984.06;5103956;28;19938;-65
2023/05/09 09:47:53;;;;;;;;;;;;;;;19.76;30.69;97980.91;5103532;27;19942;-65
2023/05/09 09:50:41;;;;;;;;;;;;;;;19.79;29.93;97971.88;5103386;28;19969;-62
2023/05/09 09:53:30;;;;;;;;;;;;;;;19.87;31.00;97964.53;5104715;28;19961;-64
2023/05/09 09:56:20;;;;;;;;;;;;;;;19.97;31.01;97954.78;5106385;27;20007;-65
2023/05/09 09:59:10;;;;;;;;;;;;;;;20.14;30.68;97949.53;5091561;28;19942;-64
2023/05/09 10:01:59;;;;;;;;;;;;;;;20.16;31.03;97957.44;5104564;28;20057;-69
2023/05/09 10:04:47;;;;;;;;;;;;;;;20.00;29.75;97937.53;5089526;28;20473;-62
2023/05/09 10:07:36;;;;;;;;;;;;;;;20.05;29.37;97939.97;5089517;28;19937;-65
2023/05/09 10:10:28;;;;;;;;;;;;;;;20.14;30.25;97941.28;5102938;28;19941;-66
2023/05/09 10:13:16;;;;;;;;;;;;;;;20.23;30.38;97932.69;5104323;28;19934;-64
2023/05/09 10:16:06;;;;;;;;;;;;;;;20.31;30.65;97931.63;5117798;27;19991;-64
2023/05/09 10:18:54;;;;;;;;;;;;;;;20.30;29.25;97932.81;5105459;28;20459;-65
2023/05/09 10:21:43;;;;;;;;;;;;;;;20.31;29.81;97922.56;5063241;28;19931;-66
2023/05/09 10:24:34;;;;;;;;;;;;;;;20.34;29.16;97928.09;5062682;28;19920;-66
2023/05/09 10:27:22;;;;;;;;;;;;;;;20.30;29.10;97916.25;5049660;28;20046;-63
2023/05/09 10:30:13;;;;;;;;;;;;;;;20.30;30.01;97902.47;5045912;28;20089;-65
2023/05/09 10:33:04;;;;;;;;;;;;;;;20.39;30.05;97902.94;5064305;28;19931;-63
2023/05/09 10:35:53;;;;;;;;;;;;;;;20.24;30.04;97894.88;5064185;28;19951;-63
2023/05/09 10:38:41;;;;;;;;;;;;;;;20.11;30.52;97888.81;5054040;28;19938;-64
2023/05/09 10:41:30;;;;;;;;;;;;;;;20.20;30.84;97881.06;5058269;28;19950;-65
2023/05/09 10:44:18;;;;;;;;;;;;;;;20.33;30.68;97879.63;5059802;28;19921;-66
2023/05/09 10:47:06;;;;;;;;;;;;;;;20.38;30.92;97864.69;5058749;28;19951;-63
2023/05/09 10:49:56;;;;;;;;;;;;;;;20.60;29.83;97868.50;5059507;28;19920;-64
2023/05/09 10:53:03;;;;;;;;;;;;;;;20.71;29.32;97858.38;5055184;28;20321;-61
2023/05/09 10:55:52;;;;;;;;;;;;;;;20.77;29.40;97859.59;5076855;28;19950;-66
2023/05/09 10:58:40;;;;;;;;;;;;;;;20.82;30.09;97855.72;5059286;28;20380;-65
2023/05/09 11:01:29;;;;;;;;;;;;;;;20.53;30.79;97846.38;5046455;28;19928;-65
2023/05/09 11:04:18;;;;;;;;;;;;;;;20.56;30.63;97838.13;5048661;28;19928;-66
2023/05/09 11:07:22;;;;;;;;;;;;;;;20.64;30.63;97830.72;5054713;28;19920;-64
2023/05/09 11:10:11;;;;;;;;;;;;;;;20.77;30.72;97825.69;5048525;28;19936;-65
2023/05/09 11:12:59;;;;;;;;;;;;;;;20.91;29.17;97818.31;5057605;28;19920;-66
2023/05/09 11:16:03;;;;;;;;;;;;;;;20.85;29.85;97814.34;5063009;28;20564;-66
2023/05/09 11:18:52;;;;;;;;;;;;;;;20.95;28.49;97809.28;5063508;28;20491;-63
2023/05/09 11:21:43;;;;;;;;;;;;;;;21.09;27.89;97804.69;5083226;28;20035;-64
2023/05/09 11:24:33;;;;;;;;;;;;;;;21.18;26.87;97809.84;5082491;28;19920;-65
2023/05/09 11:27:21;;;;;;;;;;;;;;;21.25;26.67;97801.59;5082569;28;19981;-64
2023/05/09 11:30:10;;;;;;;;;;;;;;;21.27;26.38;97788.22;5072259;28;19932;-65
2023/05/09 11:32:58;;;;;;;;;;;;;;;21.35;26.61;97795.41;5081320;28;19935;-64
2023/05/09 11:35:47;;;;;;;;;;;;;;;21.42;23.78;97794.66;5082658;28;19927;-66
2023/05/09 11:38:41;;;;;;;;;;;;;;;21.48;23.17;97792.31;5075184;28;19925;-64
2023/05/09 11:41:31;;;;;;;;;;;;;;;21.49;22.86;97782.84;5077931;28;19926;-66
2023/05/09 11:44:19;;;;;;;;;;;;;;;21.57;22.96;97776.97;5087668;28;19920;-64
2023/05/09 11:47:07;;;;;;;;;;;;;;;21.65;24.26;97775.81;5086893;28;19942;-66
2023/05/09 11:49:56;;;;;;;;;;;;;;;21.65;23.54;97769.50;5081790;28;19960;-66
2023/05/09 11:52:44;;;;;;;;;;;;;;;21.63;24.64;97778.19;5087170;28;19974;-67
2023/05/09 11:55:33;;;;;;;;;;;;;;;21.63;23.91;97764.38;5084517;28;20380;-65
2023/05/09 11:58:22;;;;;;;;;;;;;;;21.70;23.18;97749.78;5084702;28;20161;-66
2023/05/09 12:01:11;;;;;;;;;;;;;;;21.60;21.82;97750.53;5085034;28;20051;-65
2023/05/09 12:03:59;;;;;;;;;;;;;;;21.63;21.66;97739.50;5071569;28;20273;-63
2023/05/09 12:06:48;;;;;;;;;;;;;;;21.68;22.04;97741.88;5087135;28;19928;-64
2023/05/09 12:09:37;;;;;;;;;;;;;;;21.74;24.99;97741.50;5074822;28;19928;-66
2023/05/09 12:12:25;;;;;;;;;;;;;;;21.83;22.60;97736.38;5071264;28;19926;-65
2023/05/09 12:15:15;;;;;;;;;;;;;;;21.91;22.07;97730.50;5074874;28;19925;-65
2023/05/09 12:18:04;;;;;;;;;;;;;;;21.97;21.64;97720.63;5085841;28;19920;-67
2023/05/09 12:20:53;;;;;;;;;;;;;;;21.99;22.50;97711.94;5084211;28;20392;-64
2023/05/09 12:23:41;;;;;;;;;;;;;;;21.97;21.85;97717.88;5086669;28;19935;-66
2023/05/09 12:26:29;;;;;;;;;;;;;;;21.88;21.21;97709.16;5083669;28;20040;-63
2023/05/09 12:29:17;;;;;;;;;;;;;;;21.93;21.79;97714.28;5083934;28;19920;-65
2023/05/09 12:32:07;;;;;;;;;;;;;;;22.03;21.23;97700.91;5086676;28;19919;-65
2023/05/09 12:34:56;;;;;;;;;;;;;;;21.98;23.24;97697.31;5085990;28;19927;-67
2023/05/09 12:37:54;;;;;;;;;;;;;;;22.01;23.21;97703.28;5081506;28;19958;-69
2023/05/09 12:40:43;;;;;;;;;;;;;;;21.95;23.77;97700.09;5066893;28;19935;-66
2023/05/09 12:43:31;;;;;;;;;;;;;;;22.03;24.78;97695.34;5097456;28;19939;-65
2023/05/09 12:46:20;;;;;;;;;;;;;;;22.02;22.87;97677.19;5085141;28;20014;-66
2023/05/09 12:49:20;;;;;;;;;;;;;;;22.08;23.50;97670.06;5080649;28;19955;-66
2023/05/09 12:52:16;;;;;;;;;;;;;;;22.02;22.28;97666.91;5085132;28;19934;-66
2023/05/09 12:55:05;;;;;;;;;;;;;;;22.00;21.77;97676.75;5084179;28;19934;-64
2023/05/09 12:57:57;;;;;;;;;;;;;;;22.04;23.12;97663.75;5084514;28;19950;-64
2023/05/09 13:00:45;;;;;;;;;;;;;;;22.00;23.23;97660.16;5085538;28;19931;-64
2023/05/09 13:03:36;;;;;;;;;;;;;;;22.02;24.50;97660.59;5084375;28;19925;-63
2023/05/09 13:06:26;;;;;;;;;;;;;;;21.97;23.38;97653.47;5084661;28;20061;-65
2023/05/09 13:09:14;;;;;;;;;;;;;;;22.01;23.52;97642.41;5083608;28;19931;-64
2023/05/09 13:12:03;;;;;;;;;;;;;;;22.06;24.57;97645.59;5080255;28;19924;-70
2023/05/09 13:14:52;;;;;;;;;;;;;;;22.07;25.51;97640.84;5082712;28;19962;-66
2023/05/09 13:17:40;;;;;;;;;;;;;;;22.17;20.74;97623.47;5090491;28;20094;-63
2023/05/09 13:20:28;;;;;;;;;;;;;;;22.09;23.18;97617.13;5075017;28;19955;-62
2023/05/09 13:23:18;;;;;;;;;;;;;;;22.23;22.06;97619.13;5081236;28;19934;-66
2023/05/09 13:26:06;;;;;;;;;;;;;;;22.21;24.78;97615.94;5079972;28;19945;-63
2023/05/09 13:28:55;;;;;;;;;;;;;;;22.29;23.45;97614.78;5082459;28;19962;-67
2023/05/09 13:31:43;;;;;;;;;;;;;;;22.34;22.87;97606.09;5074818;28;19935;-65
2023/05/09 13:34:32;;;;;;;;;;;;;;;22.34;23.25;97600.53;5069736;28;20449;-65
2023/05/09 13:37:21;;;;;;;;;;;;;;;22.30;24.89;97599.75;5080221;28;19953;-64
2023/05/09 13:40:11;;;;;;;;;;;;;;;22.31;24.30;97583.94;5093038;28;19934;-66
2023/05/09 13:42:59;;;;;;;;;;;;;;;22.34;23.46;97588.69;5079937;28;20003;-64
2023/05/09 13:45:48;;;;;;;;;;;;;;;22.30;24.44;97591.44;5083449;28;19935;-65
2023/05/09 13:48:36;;;;;;;;;;;;;;;22.41;24.65;97595.00;5077373;28;20466;-66
2023/05/09 13:51:25;;;;;;;;;;;;;;;22.29;23.26;97587.09;5082628;28;20376;-65
2023/05/09 13:54:14;;;;;;;;;;;;;;;22.08;23.62;97587.09;5082552;28;19955;-66
2023/05/09 13:57:04;;;;;;;;;;;;;;;22.03;23.92;97587.47;5080851;28;19954;-65
2023/05/09 13:59:52;;;;;;;;;;;;;;;22.01;25.12;97587.88;5078157;28;19943;-63
2023/05/09 14:02:43;;;;;;;;;;;;;;;22.08;24.48;97584.31;5084626;28;19934;-66
2023/05/09 14:05:32;;;;;;;;;;;;;;;21.94;23.80;97577.63;5082287;28;19949;-63
2023/05/09 14:08:21;;;;;;;;;;;;;;;21.96;22.51;97568.91;5084213;28;20465;-65
2023/05/09 14:11:09;;;;;;;;;;;;;;;22.00;23.56;97568.91;5097523;28;19944;-66
2023/05/09 14:13:59;;;;;;;;;;;;;;;22.07;22.69;97560.63;5068665;28;19935;-64
2023/05/09 14:16:50;;;;;;;;;;;;;;;22.12;25.19;97563.00;5069487;28;20031;-66
2023/05/09 14:19:38;;;;;;;;;;;;;;;22.18;23.89;97547.59;5079314;28;19924;-66
2023/05/09 14:22:27;;;;;;;;;;;;;;;22.08;23.73;97553.88;5065866;28;19924;-65
2023/05/09 14:25:15;;;;;;;;;;;;;;;21.95;23.07;97546.00;5084086;28;19954;-66
2023/05/09 14:28:03;;;;;;;;;;;;;;;21.98;24.58;97539.66;5071241;28;20348;-67
2023/05/09 14:30:53;;;;;;;;;;;;;;;22.09;22.98;97545.19;5072988;28;20338;-65
2023/05/09 14:33:41;;;;;;;;;;;;;;;;;;5076308;28;19937;-66
2023/05/09 14:36:29;;;;;;;;;;;;;;;22.02;22.86;97522.28;5079858;28;19946;-66
2023/05/09 14:39:20;;;;;;;;;;;;;;;22.02;23.29;97513.97;5074798;28;19949;-65
2023/05/09 14:42:10;;;;;;;;;;;;;;;22.10;22.51;97518.31;5078359;28;19947;-68
2023/05/09 14:44:58;;;;;;;;;;;;;;;22.20;23.10;97509.25;5082545;28;19945;-64